Time;durP1;ratioP1;P1;durP2;ratioP2;P2;SDS_P1;SDS_P2;PMS_P1;PMS_P2;Temp;Humidity;BMP_temperature;BMP_pressure;BME280_temperature;BME280_humidity;BME280_pressure;Samples;Min_cycle;Max_cycle;Signal;HPM_P1;HPM_P2
2022/11/04 00:01:20;;;;;;;14.93;7.35;;;16.40;99.90;;;;;;4591187;19;20437;-33
2022/11/04 00:02:51;;;;;;;9.77;6.65;;;16.40;99.90;;;;;;4590285;19;20112;-33
2022/11/04 00:04:24;;;;;;;12.95;7.13;;;16.30;99.90;;;;;;4589246;19;20013;-33
2022/11/04 00:05:55;;;;;;;12.25;7.43;;;16.40;99.90;;;;;;4590309;19;20038;-33
2022/11/04 00:09:18;;;;;;;12.15;7.38;;;16.40;99.90;;;;;;4589692;19;20018;-33
2022/11/04 00:12:48;;;;;;;11.48;7.35;;;16.40;99.90;;;;;;4589030;19;20383;-34
2022/11/04 00:14:19;;;;;;;12.35;6.95;;;16.40;99.90;;;;;;4589118;19;20022;-33
2022/11/04 00:17:39;;;;;;;10.07;6.45;;;16.40;99.90;;;;;;4590678;19;20385;-35
2022/11/04 00:19:11;;;;;;;10.13;6.70;;;16.30;99.90;;;;;;4588911;19;20021;-34
2022/11/04 00:30:04;;;;;;;10.75;6.10;;;16.40;99.90;;;;;;4588353;19;20027;-35
2022/11/04 00:33:25;;;;;;;12.52;6.72;;;16.40;99.90;;;;;;4587499;19;20018;-35
2022/11/04 00:34:56;;;;;;;13.40;7.75;;;16.30;99.90;;;;;;4586966;19;20014;-33
2022/11/04 00:36:27;;;;;;;10.13;6.60;;;16.40;99.90;;;;;;4587888;19;20036;-34
2022/11/04 00:37:58;;;;;;;10.63;6.75;;;16.30;99.90;;;;;;4587841;19;20002;-35
2022/11/04 00:39:29;;;;;;;11.90;7.28;;;16.30;99.90;;;;;;4587534;19;20018;-33
2022/11/04 00:41:00;;;;;;;12.25;6.60;;;16.30;99.90;;;;;;4587399;19;20011;-33
2022/11/04 00:42:32;;;;;;;10.32;6.63;;;16.30;99.90;;;;;;4587749;19;20011;-36
2022/11/04 00:44:03;;;;;;;8.13;6.15;;;16.30;99.90;;;;;;4587471;19;20435;-33
2022/11/04 00:45:34;;;;;;;;;;;16.30;99.90;;;;;;4588470;19;20380;-36
2022/11/04 00:47:05;;;;;;;12.25;7.40;;;16.30;99.90;;;;;;4587045;19;19911;-33
2022/11/04 00:48:37;;;;;;;11.05;7.03;;;16.30;99.90;;;;;;4587514;19;20017;-34
2022/11/04 00:50:08;;;;;;;11.63;8.00;;;16.40;99.90;;;;;;4587469;19;20019;-34
2022/11/04 00:51:39;;;;;;;10.57;7.65;;;16.40;99.90;;;;;;4587632;19;20011;-36
2022/11/04 00:53:10;;;;;;;10.63;6.55;;;16.30;99.90;;;;;;4587688;19;20007;-34
2022/11/04 00:54:42;;;;;;;10.70;7.07;;;16.30;99.90;;;;;;4587594;19;20010;-34
2022/11/04 00:56:13;;;;;;;11.65;7.28;;;16.40;99.90;;;;;;4587121;19;20515;-35
2022/11/04 00:57:44;;;;;;;12.98;7.35;;;16.40;99.90;;;;;;4587722;19;20015;-33
2022/11/04 00:59:15;;;;;;;11.63;7.38;;;16.40;99.90;;;;;;4587316;19;20019;-34
2022/11/04 01:00:46;;;;;;;12.60;7.63;;;16.40;99.90;;;;;;4589199;19;20019;-36
2022/11/04 01:02:17;;;;;;;12.88;7.35;;;16.30;99.90;;;;;;4589035;19;20070;-34
2022/11/04 01:03:49;;;;;;;10.20;6.70;;;16.30;99.90;;;;;;4592893;19;20524;-33
2022/11/04 01:05:20;;;;;;;12.65;7.35;;;16.40;99.90;;;;;;4594141;19;20007;-34
2022/11/04 01:06:52;;;;;;;8.57;6.63;;;16.30;99.90;;;;;;4593908;19;20364;-33
2022/11/04 01:08:23;;;;;;;12.68;6.90;;;16.30;99.90;;;;;;4594169;19;20018;-34
2022/11/04 01:09:54;;;;;;;10.88;6.93;;;16.30;99.90;;;;;;4592726;19;20010;-34
2022/11/04 01:11:27;;;;;;;11.30;7.22;;;16.30;99.90;;;;;;4593577;19;19998;-36
2022/11/04 01:12:58;;;;;;;12.68;6.80;;;16.30;99.90;;;;;;4593952;19;20070;-34
2022/11/04 01:14:29;;;;;;;11.35;6.95;;;16.30;99.90;;;;;;4594014;19;20043;-35
2022/11/04 01:16:03;;;;;;;12.95;7.05;;;16.40;99.90;;;;;;4594059;19;20006;-35
2022/11/04 01:17:34;;;;;;;9.65;6.05;;;16.30;99.90;;;;;;4592584;19;20010;-35
2022/11/04 01:19:05;;;;;;;10.68;7.07;;;16.40;99.90;;;;;;4593548;19;20349;-34
2022/11/04 01:20:36;;;;;;;9.80;6.63;;;16.30;99.90;;;;;;4592611;19;20357;-35
2022/11/04 01:22:07;;;;;;;9.60;6.85;;;16.30;99.90;;;;;;4592689;19;20334;-34
2022/11/04 01:23:39;;;;;;;10.18;6.75;;;16.30;99.90;;;;;;4592590;19;20031;-36
2022/11/04 01:25:10;;;;;;;12.68;6.95;;;16.30;99.90;;;;;;4593326;19;20334;-33
2022/11/04 01:26:41;;;;;;;12.15;7.32;;;16.30;99.90;;;;;;4592506;19;20019;-34
2022/11/04 01:28:12;;;;;;;11.65;7.07;;;16.30;99.90;;;;;;4593996;19;20352;-36
2022/11/04 01:29:43;;;;;;;12.75;7.07;;;16.30;99.90;;;;;;4591712;19;20013;-34
2022/11/04 01:31:22;;;;;;;12.90;7.35;;;16.40;99.90;;;;;;4593901;19;20107;-35
2022/11/04 01:32:53;;;;;;;12.45;7.35;;;16.30;99.90;;;;;;4592462;19;20014;-34
2022/11/04 01:34:24;;;;;;;11.85;6.90;;;16.40;99.90;;;;;;4592989;19;20014;-33
2022/11/04 01:35:58;;;;;;;9.60;6.38;;;16.40;99.90;;;;;;4593492;19;20010;-34
2022/11/04 01:37:30;;;;;;;9.82;6.25;;;16.30;99.90;;;;;;4592483;19;20011;-34
2022/11/04 01:39:01;;;;;;;10.80;6.35;;;16.30;99.90;;;;;;4593370;19;20021;-34
2022/11/04 01:40:39;;;;;;;11.57;6.88;;;16.30;99.90;;;;;;4593351;19;20473;-35
2022/11/04 01:42:12;;;;;;;13.15;7.00;;;16.30;99.90;;;;;;4592177;19;20057;-35
2022/11/04 01:43:46;;;;;;;11.45;7.05;;;16.30;99.90;;;;;;4592176;19;20014;-34
2022/11/04 01:45:19;;;;;;;10.32;6.45;;;16.30;99.90;;;;;;4593038;19;19999;-33
2022/11/04 01:46:51;;;;;;;11.18;6.55;;;16.30;99.90;;;;;;4593632;19;20451;-36
2022/11/04 01:48:25;;;;;;;10.23;6.45;;;16.30;99.90;;;;;;4591855;19;20014;-34
2022/11/04 01:50:26;;;;;;;11.73;7.03;;;16.30;99.90;;;;;;4592614;19;20503;-35
2022/11/04 01:52:04;;;;;;;10.15;6.85;;;16.30;99.90;;;;;;4591441;19;20464;-35
2022/11/04 01:53:38;;;;;;;11.57;6.95;;;16.30;99.90;;;;;;4593034;19;20014;-36
2022/11/04 01:55:13;;;;;;;10.35;7.00;;;16.30;99.90;;;;;;4592153;19;20006;-34
2022/11/04 01:56:44;;;;;;;14.02;7.13;;;16.30;99.90;;;;;;4591842;19;20035;-35
2022/11/04 01:58:17;;;;;;;12.32;7.18;;;16.40;99.90;;;;;;4592607;19;20101;-34
2022/11/04 01:59:48;;;;;;;11.75;7.30;;;16.30;99.90;;;;;;4591954;19;20003;-34
2022/11/04 02:01:19;;;;;;;9.52;6.45;;;16.40;99.90;;;;;;4591831;19;20077;-33
2022/11/04 02:02:56;;;;;;;11.85;6.80;;;16.30;99.90;;;;;;4591228;19;20018;-34
2022/11/04 02:04:28;;;;;;;12.43;7.22;;;16.40;99.90;;;;;;4591568;19;20396;-33
2022/11/04 02:05:59;;;;;;;10.73;6.40;;;16.40;99.90;;;;;;4593286;19;20003;-33
2022/11/04 02:07:31;;;;;;;9.85;6.13;;;16.30;99.90;;;;;;4591613;19;20101;-34
2022/11/04 02:09:02;;;;;;;9.15;6.30;;;16.30;99.90;;;;;;4591817;19;20015;-33
2022/11/04 02:10:33;;;;;;;11.23;6.63;;;16.40;99.90;;;;;;4593278;19;20014;-34
2022/11/04 02:13:54;;;;;;;12.40;6.90;;;16.30;99.90;;;;;;4590966;19;20038;-35
2022/11/04 02:15:28;;;;;;;10.23;6.53;;;16.40;99.90;;;;;;4591644;19;20007;-33
2022/11/04 02:17:17;;;;;;;10.75;6.32;;;16.30;99.90;;;;;;4592980;19;20484;-34
2022/11/04 02:18:57;;;;;;;12.63;7.63;;;16.30;99.90;;;;;;4593098;19;20010;-35
2022/11/04 02:20:58;;;;;;;11.50;6.15;;;16.30;99.90;;;;;;4592700;19;20028;-33
2022/11/04 02:22:47;;;;;;;10.35;6.53;;;16.30;99.90;;;;;;4590845;19;20028;-36
2022/11/04 02:24:37;;;;;;;10.07;5.95;;;16.30;99.90;;;;;;4590225;19;20010;-35
2022/11/04 02:26:29;;;;;;;8.65;6.15;;;16.30;99.90;;;;;;4590196;19;20010;-36
2022/11/04 02:28:21;;;;;;;10.55;5.85;;;16.30;99.90;;;;;;4590167;19;20504;-35
2022/11/04 02:30:06;;;;;;;11.07;6.63;;;16.30;99.90;;;;;;4590174;19;20010;-36
2022/11/04 02:31:45;;;;;;;9.93;6.60;;;16.30;99.90;;;;;;4590447;19;20017;-33
2022/11/04 02:33:21;;;;;;;11.10;6.55;;;16.30;99.90;;;;;;4590347;19;20017;-33
2022/11/04 02:35:06;;;;;;;9.05;6.25;;;16.30;99.90;;;;;;4589691;19;20003;-33
2022/11/04 02:37:18;;;;;;;8.45;6.40;;;16.30;99.90;;;;;;4589938;19;20388;-35
2022/11/04 02:38:50;;;;;;;;;;;16.30;99.90;;;;;;4590880;19;20506;-35
2022/11/04 02:40:41;;;;;;;;;;;16.30;99.90;;;;;;4590813;19;20349;-33
2022/11/04 02:42:43;;;;;;;9.45;5.80;;;16.30;99.90;;;;;;4590236;19;19973;-32
2022/11/04 02:44:26;;;;;;;9.88;5.97;;;16.30;99.90;;;;;;4589753;19;20441;-34
2022/11/04 02:46:17;;;;;;;10.73;6.13;;;16.30;99.90;;;;;;4590380;19;19995;-34
2022/11/04 02:47:51;;;;;;;10.85;6.22;;;16.30;99.90;;;;;;4590079;19;20002;-34
2022/11/04 02:49:26;;;;;;;10.70;6.32;;;16.30;99.90;;;;;;4589010;19;20015;-33
2022/11/04 02:51:14;;;;;;;9.73;5.85;;;16.30;99.90;;;;;;4589408;19;20030;-34
2022/11/04 02:52:50;;;;;;;9.93;6.25;;;16.30;99.90;;;;;;4589759;19;20021;-33
2022/11/04 02:54:46;;;;;;;10.90;5.95;;;16.30;99.90;;;;;;4589920;19;20070;-34
2022/11/04 02:56:18;;;;;;;12.23;6.20;;;16.30;99.90;;;;;;4589994;19;20385;-34
2022/11/04 02:57:49;;;;;;;9.40;5.68;;;16.30;99.90;;;;;;4590001;19;20010;-34
2022/11/04 02:59:39;;;;;;;9.70;6.22;;;16.30;99.90;;;;;;4589523;19;20134;-33
2022/11/04 03:01:12;;;;;;;12.02;6.57;;;16.30;99.90;;;;;;4589644;19;20042;-36
2022/11/04 03:03:14;;;;;;;11.50;7.45;;;16.30;99.90;;;;;;4588162;19;20018;-34
2022/11/04 03:04:47;;;;;;;12.38;6.70;;;16.30;99.90;;;;;;4589143;19;20468;-35
2022/11/04 03:06:21;;;;;;;11.15;6.65;;;16.30;99.90;;;;;;4589954;19;20002;-34
2022/11/04 03:07:53;;;;;;;10.18;5.78;;;16.30;99.90;;;;;;4589244;19;20019;-33
2022/11/04 03:09:24;;;;;;;10.70;6.43;;;16.30;99.90;;;;;;4588377;19;20349;-34
2022/11/04 03:10:59;;;;;;;9.65;5.82;;;16.20;99.90;;;;;;4589899;19;20027;-33
2022/11/04 03:12:37;;;;;;;10.30;6.68;;;16.20;99.90;;;;;;4590157;19;20013;-33
2022/11/04 03:14:23;;;;;;;8.85;6.05;;;16.20;99.90;;;;;;4589165;19;20011;-33
2022/11/04 03:15:57;;;;;;;8.80;6.00;;;16.20;99.90;;;;;;4590450;19;20014;-35
2022/11/04 03:17:56;;;;;;;9.60;6.18;;;16.30;99.90;;;;;;4590450;19;20015;-35
2022/11/04 03:19:45;;;;;;;10.45;6.22;;;16.20;99.90;;;;;;4589054;19;20010;-34
2022/11/04 03:21:16;;;;;;;9.38;6.13;;;16.30;99.90;;;;;;4589305;19;20011;-35
2022/11/04 03:22:48;;;;;;;9.60;6.63;;;16.30;99.90;;;;;;4589141;19;20022;-34
2022/11/04 03:24:19;;;;;;;12.88;6.60;;;16.30;99.90;;;;;;4589053;19;20422;-34
2022/11/04 03:25:51;;;;;;;9.13;6.43;;;16.30;99.90;;;;;;4588362;19;20011;-33
2022/11/04 03:27:55;;;;;;;11.02;6.00;;;16.30;99.90;;;;;;4589053;19;20388;-33
2022/11/04 03:29:37;;;;;;;10.48;6.18;;;16.30;99.90;;;;;;4588075;19;20473;-36
2022/11/04 03:31:09;;;;;;;10.90;6.63;;;16.20;99.90;;;;;;4588837;19;20472;-33
2022/11/04 03:33:01;;;;;;;8.35;5.95;;;16.20;99.90;;;;;;4588816;19;20029;-34
2022/11/04 03:34:33;;;;;;;9.65;6.22;;;16.30;99.90;;;;;;4588359;19;20033;-33
2022/11/04 03:36:06;;;;;;;11.60;7.10;;;16.20;99.90;;;;;;4589213;19;20027;-36
2022/11/04 03:37:56;;;;;;;10.02;5.95;;;16.20;99.90;;;;;;4589085;19;20010;-35
2022/11/04 03:39:27;;;;;;;8.52;6.10;;;16.20;99.90;;;;;;4589115;19;20109;-33
2022/11/04 03:40:59;;;;;;;9.18;6.25;;;16.20;99.90;;;;;;4589014;19;20031;-36
2022/11/04 03:42:31;;;;;;;11.70;6.50;;;16.20;99.90;;;;;;4588645;19;20010;-33
2022/11/04 03:44:02;;;;;;;13.40;7.50;;;16.20;99.90;;;;;;4588761;19;20178;-33
2022/11/04 03:45:33;;;;;;;11.77;6.57;;;16.30;99.90;;;;;;4589182;19;20069;-33
2022/11/04 03:47:04;;;;;;;11.23;7.40;;;16.20;99.90;;;;;;4588459;19;20043;-35
2022/11/04 03:48:35;;;;;;;11.13;5.75;;;16.20;99.90;;;;;;4588485;19;20010;-34
2022/11/04 03:50:11;;;;;;;10.18;6.03;;;16.30;99.90;;;;;;4588579;19;20066;-35
2022/11/04 03:51:42;;;;;;;9.45;6.63;;;16.20;99.90;;;;;;4588383;19;20014;-36
2022/11/04 03:53:15;;;;;;;12.95;7.82;;;16.20;99.90;;;;;;4588598;19;20021;-33
2022/11/04 03:54:46;;;;;;;10.20;5.57;;;16.20;99.90;;;;;;4588983;19;20090;-35
2022/11/04 03:56:36;;;;;;;12.27;7.18;;;16.20;99.90;;;;;;4588715;19;20019;-34
2022/11/04 03:58:11;;;;;;;9.88;7.00;;;16.20;99.90;;;;;;4590739;19;20020;-35
2022/11/04 03:59:45;;;;;;;10.38;6.03;;;16.20;99.90;;;;;;4589273;19;20390;-35
2022/11/04 04:01:16;;;;;;;10.70;6.65;;;16.20;99.90;;;;;;4590055;19;20469;-35
2022/11/04 04:03:10;;;;;;;11.13;6.50;;;16.20;99.90;;;;;;4589983;19;20019;-33
2022/11/04 04:05:01;;;;;;;10.75;6.60;;;16.20;99.90;;;;;;4590574;19;20014;-35
2022/11/04 04:06:34;;;;;;;9.50;5.90;;;16.30;99.90;;;;;;4589894;19;20054;-35
2022/11/04 04:08:35;;;;;;;14.52;6.97;;;16.20;99.90;;;;;;4589234;19;20011;-34
2022/11/04 04:10:40;;;;;;;13.02;6.63;;;16.30;99.90;;;;;;4590491;19;20097;-36
2022/11/04 04:12:33;;;;;;;11.13;6.22;;;16.20;99.90;;;;;;4588149;19;20013;-35
2022/11/04 04:14:41;;;;;;;12.07;6.40;;;16.30;99.90;;;;;;4587993;19;20006;-34
2022/11/04 04:16:22;;;;;;;12.23;6.53;;;16.30;99.90;;;;;;4588162;19;20110;-35
2022/11/04 04:18:02;;;;;;;10.05;6.68;;;16.30;99.90;;;;;;4588358;19;20014;-33
2022/11/04 04:19:33;;;;;;;10.55;6.88;;;16.20;99.90;;;;;;4588472;19;19998;-34
2022/11/04 04:21:07;;;;;;;13.05;7.30;;;16.30;99.90;;;;;;4588430;19;20015;-32
2022/11/04 04:22:42;;;;;;;10.85;7.00;;;16.20;99.90;;;;;;4588532;19;20018;-34
2022/11/04 04:27:56;;;;;;;12.55;6.97;;;16.20;99.90;;;;;;4588461;19;20492;-34
2022/11/04 04:29:27;;;;;;;9.57;6.78;;;16.20;99.90;;;;;;4587483;19;20026;-32
2022/11/04 04:30:58;;;;;;;14.70;7.22;;;16.20;99.90;;;;;;4587790;19;20010;-35
2022/11/04 04:32:34;;;;;;;17.27;8.20;;;16.20;99.90;;;;;;4587888;19;20492;-36
2022/11/04 04:34:05;;;;;;;11.43;7.68;;;16.20;99.90;;;;;;4587312;19;20019;-33
2022/11/04 04:35:40;;;;;;;15.10;9.20;;;16.30;99.90;;;;;;4587925;19;20015;-35
2022/11/04 04:37:22;;;;;;;12.50;8.45;;;16.30;99.90;;;;;;4587601;19;20082;-33
2022/11/04 04:46:17;;;;;;;9.77;7.00;;;16.20;99.90;;;;;;4593318;19;20533;-32
2022/11/04 04:47:48;;;;;;;9.32;6.57;;;16.20;99.90;;;;;;4593261;19;20006;-35
2022/11/04 04:49:19;;;;;;;10.60;6.95;;;16.20;99.90;;;;;;4592768;19;20021;-33
2022/11/04 04:50:51;;;;;;;11.85;6.95;;;16.30;99.90;;;;;;4595187;19;19996;-35
2022/11/04 04:52:23;;;;;;;;;;;16.30;99.90;;;;;;4594805;19;20006;-33
2022/11/04 04:53:54;;;;;;;13.45;6.97;;;16.20;99.90;;;;;;4593207;19;19923;-33
2022/11/04 04:55:25;;;;;;;10.55;7.25;;;16.20;99.90;;;;;;4593017;19;20405;-34
2022/11/04 04:56:56;;;;;;;13.80;7.82;;;16.20;99.90;;;;;;4593194;19;20051;-34
2022/11/04 04:58:27;;;;;;;12.75;7.93;;;16.30;99.90;;;;;;4594182;19;20021;-36
2022/11/04 04:59:58;;;;;;;11.35;7.07;;;16.30;99.90;;;;;;4594377;19;20015;-34
2022/11/04 05:01:30;;;;;;;12.45;7.55;;;16.20;99.90;;;;;;4591906;19;20014;-33
2022/11/04 05:03:01;;;;;;;9.57;7.30;;;16.20;99.90;;;;;;4591802;19;20036;-33
2022/11/04 05:04:32;;;;;;;11.55;7.22;;;16.20;99.90;;;;;;4593851;19;20015;-34
2022/11/04 05:06:03;;;;;;;15.48;8.52;;;16.30;99.90;;;;;;4594330;19;20017;-36
2022/11/04 05:07:35;;;;;;;11.32;7.78;;;16.30;99.90;;;;;;4594578;19;20012;-35
2022/11/04 05:09:06;;;;;;;11.45;7.20;;;16.30;99.90;;;;;;4593924;19;20331;-32
2022/11/04 05:10:37;;;;;;;12.10;8.32;;;16.30;99.90;;;;;;4593931;19;20015;-34
2022/11/04 05:12:08;;;;;;;11.35;7.00;;;16.20;99.90;;;;;;4594280;19;20007;-33
2022/11/04 05:16:10;;;;;;;14.77;8.13;;;16.20;99.90;;;;;;4594430;19;20010;-34
2022/11/04 05:17:41;;;;;;;12.95;7.95;;;16.30;99.90;;;;;;4594491;19;20007;-35
2022/11/04 05:19:31;;;;;;;13.00;7.85;;;16.20;99.90;;;;;;4594087;19;20376;-33
2022/11/04 05:21:13;;;;;;;12.02;7.80;;;16.20;99.90;;;;;;4592649;19;20011;-34
2022/11/04 05:22:44;;;;;;;12.00;7.88;;;16.20;99.90;;;;;;4593546;19;20011;-34
2022/11/04 05:24:16;;;;;;;13.10;8.20;;;16.20;99.90;;;;;;4594212;19;20010;-36
2022/11/04 05:25:47;;;;;;;11.50;7.45;;;16.30;99.90;;;;;;4594436;19;20018;-35
2022/11/04 05:27:18;;;;;;;11.27;7.15;;;16.20;99.90;;;;;;4593666;19;20478;-33
2022/11/04 05:28:49;;;;;;;10.48;7.50;;;16.20;99.90;;;;;;4592276;19;20009;-36
2022/11/04 05:30:20;;;;;;;11.90;8.35;;;16.20;99.90;;;;;;4593263;19;20042;-34
2022/11/04 05:31:51;;;;;;;10.23;7.28;;;16.20;99.90;;;;;;4594069;19;20003;-33
2022/11/04 05:33:22;;;;;;;11.40;7.55;;;16.20;99.90;;;;;;4593650;19;20002;-33
2022/11/04 05:34:53;;;;;;;14.00;9.07;;;16.20;99.90;;;;;;4592701;19;20066;-34
2022/11/04 05:36:24;;;;;;;13.77;8.15;;;16.20;99.90;;;;;;4594479;19;20012;-35
2022/11/04 05:37:55;;;;;;;14.82;7.57;;;16.30;99.90;;;;;;4592246;19;20371;-33
2022/11/04 05:39:27;;;;;;;12.18;7.45;;;16.30;99.90;;;;;;4591873;19;20019;-35
2022/11/04 05:40:58;;;;;;;15.27;8.20;;;16.40;99.90;;;;;;4592668;19;20077;-34
2022/11/04 05:42:30;;;;;;;14.85;9.30;;;16.40;99.90;;;;;;4591257;19;20022;-36
2022/11/04 05:44:01;;;;;;;;;;;16.40;99.90;;;;;;4590766;19;20018;-36
2022/11/04 05:45:32;;;;;;;12.82;7.80;;;16.40;99.90;;;;;;4590461;19;19918;-33
2022/11/04 05:47:03;;;;;;;11.90;8.38;;;16.50;99.90;;;;;;4591072;19;20504;-34
2022/11/04 05:48:34;;;;;;;14.10;9.00;;;16.50;99.90;;;;;;4589797;19;20107;-33
2022/11/04 05:50:06;;;;;;;13.52;8.70;;;16.50;99.90;;;;;;4591725;19;20476;-34
2022/11/04 05:51:37;;;;;;;14.43;9.27;;;16.60;99.90;;;;;;4591664;19;20010;-35
2022/11/04 05:53:08;;;;;;;14.27;8.98;;;16.60;99.90;;;;;;4592101;19;20426;-34
2022/11/04 05:54:39;;;;;;;13.85;9.43;;;16.60;99.90;;;;;;4591248;19;20035;-33
2022/11/04 05:56:10;;;;;;;15.43;10.85;;;16.60;99.90;;;;;;4593480;19;20349;-33
2022/11/04 05:57:41;;;;;;;17.40;11.68;;;16.50;99.90;;;;;;4591881;19;20489;-35
2022/11/04 05:59:12;;;;;;;15.32;11.18;;;16.50;99.90;;;;;;4592199;19;20077;-35
2022/11/04 06:00:43;;;;;;;18.55;12.65;;;16.50;99.90;;;;;;4592176;19;20052;-33
2022/11/04 06:02:14;;;;;;;16.40;10.98;;;16.50;99.90;;;;;;4591258;19;20022;-33
2022/11/04 06:03:46;;;;;;;12.90;9.15;;;16.50;99.90;;;;;;4593921;19;20019;-36
2022/11/04 06:05:17;;;;;;;13.88;9.32;;;16.50;99.90;;;;;;4592793;19;20030;-34
2022/11/04 06:06:48;;;;;;;12.70;8.50;;;16.50;99.90;;;;;;4593432;19;20556;-34
2022/11/04 06:08:19;;;;;;;13.30;8.82;;;16.50;99.90;;;;;;4592587;19;20025;-36
2022/11/04 06:09:50;;;;;;;14.80;8.88;;;16.50;99.90;;;;;;4591759;19;20414;-35
2022/11/04 06:11:22;;;;;;;11.65;8.45;;;16.50;99.90;;;;;;4592205;19;20097;-33
2022/11/04 06:12:53;;;;;;;13.68;9.40;;;16.50;99.90;;;;;;4591495;19;20015;-35
2022/11/04 06:14:24;;;;;;;14.50;8.93;;;16.50;99.90;;;;;;4592734;19;20338;-36
2022/11/04 06:15:55;;;;;;;13.38;9.20;;;16.50;99.90;;;;;;4592246;19;20406;-36
2022/11/04 06:17:26;;;;;;;16.10;9.25;;;16.40;99.90;;;;;;4593446;19;20014;-33
2022/11/04 06:18:57;;;;;;;15.63;9.73;;;16.40;99.90;;;;;;4592638;19;20029;-34
2022/11/04 06:20:28;;;;;;;14.75;9.43;;;16.40;99.90;;;;;;4593092;19;20516;-33
2022/11/04 06:22:00;;;;;;;15.18;9.98;;;16.40;99.90;;;;;;4592013;19;20403;-33
2022/11/04 06:23:31;;;;;;;;;;;16.40;99.90;;;;;;4594000;19;20112;-36
2022/11/04 06:25:02;;;;;;;16.65;10.15;;;16.50;99.90;;;;;;4592242;19;19939;-33
2022/11/04 06:26:34;;;;;;;16.60;10.13;;;16.50;99.90;;;;;;4592919;19;20480;-34
2022/11/04 06:28:05;;;;;;;;;;;16.50;99.90;;;;;;4593814;19;20024;-34
2022/11/04 06:29:39;;;;;;;20.05;10.60;;;16.60;99.90;;;;;;4589262;19;20346;-33
2022/11/04 06:31:10;;;;;;;13.70;9.15;;;16.60;99.90;;;;;;4591214;19;20346;-35
2022/11/04 06:32:42;;;;;;;13.02;9.65;;;16.60;99.90;;;;;;4591888;19;20041;-36
2022/11/04 06:34:14;;;;;;;13.65;9.57;;;16.70;99.90;;;;;;4590018;19;20035;-36
2022/11/04 06:35:45;;;;;;;13.02;9.43;;;16.70;99.90;;;;;;4591830;19;20082;-34
2022/11/04 06:37:17;;;;;;;;;;;16.60;99.90;;;;;;4592206;19;20018;-33
2022/11/04 06:38:48;;;;;;;12.02;8.13;;;16.60;99.90;;;;;;4591154;19;20388;-34
2022/11/04 06:40:20;;;;;;;15.50;9.82;;;16.70;99.90;;;;;;4591286;19;20015;-32
2022/11/04 06:41:52;;;;;;;12.95;8.95;;;16.70;99.90;;;;;;4591221;19;20019;-34
2022/11/04 06:43:23;;;;;;;12.73;8.55;;;16.70;99.90;;;;;;4591929;19;20067;-36
2022/11/04 06:44:55;;;;;;;15.18;10.10;;;16.80;99.90;;;;;;4592673;19;20034;-34
2022/11/04 06:46:28;;;;;;;13.63;10.52;;;16.80;99.90;;;;;;4590797;19;20017;-33
2022/11/04 06:47:59;;;;;;;13.10;9.07;;;16.70;99.90;;;;;;4591571;19;20367;-34
2022/11/04 06:49:30;;;;;;;16.02;11.38;;;16.60;99.90;;;;;;4590178;19;20038;-36
2022/11/04 06:51:01;;;;;;;14.13;9.02;;;16.60;99.90;;;;;;4591839;19;20010;-33
2022/11/04 06:52:32;;;;;;;18.13;9.40;;;16.60;99.90;;;;;;4591614;19;20336;-34
2022/11/04 06:54:04;;;;;;;14.82;9.85;;;16.50;99.90;;;;;;4591979;19;20025;-32
2022/11/04 06:55:35;;;;;;;14.43;10.38;;;16.50;99.90;;;;;;4590874;19;20006;-32
2022/11/04 06:57:08;;;;;;;14.90;9.60;;;16.50;99.90;;;;;;4590778;19;20014;-33
2022/11/04 06:58:40;;;;;;;13.65;8.73;;;16.50;99.90;;;;;;4589157;19;20019;-33
2022/11/04 07:00:11;;;;;;;11.50;8.48;;;16.60;99.90;;;;;;4588875;19;20038;-34
2022/11/04 07:01:43;;;;;;;15.00;10.00;;;16.60;99.90;;;;;;4588666;19;20002;-35
2022/11/04 07:03:16;;;;;;;11.68;8.18;;;16.60;99.90;;;;;;4589390;19;20387;-35
2022/11/04 07:04:47;;;;;;;12.10;8.88;;;16.60;99.90;;;;;;4589278;19;20010;-35
2022/11/04 07:06:18;;;;;;;13.88;8.35;;;16.70;99.90;;;;;;4588810;19;20018;-33
2022/11/04 07:07:50;;;;;;;14.20;9.18;;;16.70;99.90;;;;;;4589254;19;20088;-34
2022/11/04 07:09:21;;;;;;;12.57;8.43;;;16.70;99.90;;;;;;4588279;19;20006;-33
2022/11/04 07:10:54;;;;;;;13.90;9.52;;;16.70;99.90;;;;;;4588950;19;20154;-32
2022/11/04 07:12:25;;;;;;;12.55;8.30;;;16.70;99.90;;;;;;4589323;19;20061;-32
2022/11/04 07:13:56;;;;;;;12.63;9.35;;;16.70;99.90;;;;;;4589603;19;20018;-34
2022/11/04 07:15:27;;;;;;;14.75;9.32;;;16.70;99.90;;;;;;4589163;19;20015;-36
2022/11/04 07:16:59;;;;;;;13.18;8.88;;;16.70;99.90;;;;;;4588506;19;20014;-32
2022/11/04 07:18:30;;;;;;;15.30;9.23;;;16.70;99.90;;;;;;4589528;19;20014;-33
2022/11/04 07:20:02;;;;;;;12.82;9.20;;;16.70;99.90;;;;;;4588615;19;20024;-34
2022/11/04 07:21:33;;;;;;;12.52;9.65;;;16.70;99.90;;;;;;4588660;19;20516;-33
2022/11/04 07:23:05;;;;;;;15.15;9.70;;;16.70;99.90;;;;;;4588435;19;20014;-34
2022/11/04 07:24:36;;;;;;;14.25;8.88;;;16.80;99.90;;;;;;4589337;19;20066;-32
2022/11/04 07:26:07;;;;;;;14.45;8.85;;;16.80;99.90;;;;;;4588688;19;20010;-33
2022/11/04 07:27:38;;;;;;;;;;;16.80;99.90;;;;;;4589645;19;20006;-33
2022/11/04 07:29:10;;;;;;;15.75;10.88;;;16.80;99.90;;;;;;4588010;19;19919;-34
2022/11/04 07:30:41;;;;;;;11.73;8.82;;;16.80;99.90;;;;;;4590025;19;20078;-33
2022/11/04 07:32:13;;;;;;;13.73;9.40;;;16.80;99.90;;;;;;4589478;19;20014;-34
2022/11/04 07:33:50;;;;;;;14.37;10.00;;;16.00;99.90;;;;;;4592916;19;20014;-32
2022/11/04 07:35:21;;;;;;;13.63;9.67;;;14.60;99.90;;;;;;4589357;19;20011;-35
2022/11/04 07:36:53;;;;;;;17.02;10.80;;;14.00;99.90;;;;;;4589601;19;20080;-32
2022/11/04 07:38:25;;;;;;;12.67;8.93;;;13.80;99.90;;;;;;4589277;19;20006;-31
2022/11/04 07:39:57;;;;;;;14.77;9.93;;;13.70;99.90;;;;;;4590463;19;20039;-32
2022/11/04 07:41:29;;;;;;;16.20;10.63;;;13.60;99.90;;;;;;4590090;19;20096;-33
2022/11/04 07:43:00;;;;;;;15.57;10.55;;;13.60;99.90;;;;;;4589837;19;20013;-33
2022/11/04 07:44:32;;;;;;;;;;;13.50;99.90;;;;;;4590077;19;20025;-35
2022/11/04 07:46:08;;;;;;;16.77;11.27;;;13.50;99.90;;;;;;4589370;19;19914;-34
2022/11/04 07:47:40;;;;;;;16.63;11.80;;;13.50;99.90;;;;;;4589672;19;20011;-31
2022/11/04 07:49:12;;;;;;;15.18;11.52;;;13.50;99.90;;;;;;4588499;19;20520;-34
2022/11/04 07:50:44;;;;;;;15.10;9.97;;;13.50;99.90;;;;;;4589067;19;20021;-33
2022/11/04 07:52:20;;;;;;;18.03;10.70;;;13.50;99.90;;;;;;4590156;19;20362;-32
2022/11/04 07:53:54;;;;;;;13.20;9.90;;;13.50;99.90;;;;;;4589676;19;20386;-33
2022/11/04 07:55:26;;;;;;;17.00;11.77;;;13.50;99.90;;;;;;4588969;19;20453;-33
2022/11/04 07:56:57;;;;;;;;;;;13.50;99.90;;;;;;4589762;19;20558;-33
2022/11/04 07:58:28;;;;;;;13.57;9.82;;;13.50;99.90;;;;;;4589590;19;20262;-33
2022/11/04 08:00:05;;;;;;;15.38;9.95;;;13.50;99.90;;;;;;4589942;19;20484;-34
2022/11/04 08:01:45;;;;;;;13.40;10.57;;;13.50;99.90;;;;;;4588795;19;20042;-34
2022/11/04 08:03:17;;;;;;;15.33;11.13;;;13.50;99.90;;;;;;4589141;19;20014;-33
2022/11/04 08:04:49;;;;;;;17.50;10.17;;;13.50;99.90;;;;;;4589697;19;20006;-35
2022/11/04 08:06:21;;;;;;;;;;;13.50;99.90;;;;;;4588601;19;20477;-34
2022/11/04 08:07:52;;;;;;;14.30;10.63;;;13.40;99.90;;;;;;4588108;19;19918;-33
2022/11/04 08:09:23;;;;;;;13.48;10.00;;;13.40;99.90;;;;;;4588195;19;20461;-34
2022/11/04 08:10:57;;;;;;;14.25;9.65;;;13.40;99.90;;;;;;4589278;19;20102;-34
2022/11/04 08:12:30;;;;;;;15.87;10.93;;;13.40;99.90;;;;;;4586767;19;20124;-35
2022/11/04 08:14:04;;;;;;;16.17;11.13;;;13.40;99.90;;;;;;4589565;19;20006;-35
2022/11/04 08:15:36;;;;;;;16.97;10.20;;;13.70;99.90;;;;;;4590369;19;20499;-35
2022/11/04 08:17:07;;;;;;;13.63;10.60;;;14.00;99.90;;;;;;4588784;19;20002;-32
2022/11/04 08:18:41;;;;;;;12.37;9.17;;;14.40;99.90;;;;;;4589802;19;20074;-33
2022/11/04 08:20:12;;;;;;;14.98;9.38;;;14.70;99.90;;;;;;4588089;19;20015;-34
2022/11/04 08:21:44;;;;;;;14.43;9.03;;;14.90;99.90;;;;;;4589498;19;20057;-34
2022/11/04 08:23:16;;;;;;;14.95;9.73;;;15.10;99.90;;;;;;4588577;19;20528;-35
2022/11/04 08:24:47;;;;;;;14.40;8.97;;;15.20;99.90;;;;;;4589313;19;20106;-33
2022/11/04 08:26:19;;;;;;;15.43;9.32;;;15.30;99.90;;;;;;4588460;19;20012;-32
2022/11/04 08:27:51;;;;;;;14.17;9.13;;;15.40;99.90;;;;;;4588062;19;20386;-34
2022/11/04 08:29:22;;;;;;;12.95;9.55;;;15.50;99.90;;;;;;4588214;19;20002;-33
2022/11/04 08:31:01;;;;;;;17.08;9.88;;;15.50;99.90;;;;;;4587878;19;20011;-33
2022/11/04 08:32:34;;;;;;;15.40;9.65;;;15.60;99.90;;;;;;4590188;19;20018;-33
2022/11/04 08:34:07;;;;;;;14.52;9.52;;;15.60;99.90;;;;;;4587511;19;20074;-33
2022/11/04 08:35:41;;;;;;;14.40;8.82;;;15.60;99.90;;;;;;4588704;19;20039;-33
2022/11/04 08:37:14;;;;;;;15.88;8.90;;;15.70;99.90;;;;;;4588043;19;20511;-33
2022/11/04 08:38:45;;;;;;;16.40;9.23;;;15.70;99.90;;;;;;4589024;19;20022;-34
2022/11/04 08:40:17;;;;;;;;;;;15.80;99.90;;;;;;4589560;19;20026;-34